Time;durP1;ratioP1;P1;durP2;ratioP2;P2;SDS_P1;SDS_P2;PMS_P1;PMS_P2;Temp;Humidity;BMP_temperature;BMP_pressure;BME280_temperature;BME280_humidity;BME280_pressure;Samples;Min_cycle;Max_cycle;Signal;HPM_P1;HPM_P2
2023/01/31 00:00:41;;;;;;;9.30;2.20;;;2.80;99.90;;;;;;5004914;28;20192;-76
2023/01/31 00:03:07;;;;;;;13.97;2.27;;;2.80;99.90;;;;;;5005634;28;20198;-76
2023/01/31 00:05:33;;;;;;;9.53;2.20;;;2.80;99.90;;;;;;5008627;28;20215;-76
2023/01/31 00:07:59;;;;;;;10.10;1.90;;;2.70;99.90;;;;;;5008992;28;20206;-77
2023/01/31 00:10:25;;;;;;;10.77;3.07;;;2.70;99.90;;;;;;5009068;28;20187;-76
2023/01/31 00:12:50;;;;;;;10.20;2.23;;;2.70;99.90;;;;;;5008947;28;20187;-78
2023/01/31 00:15:17;;;;;;;10.47;2.10;;;2.70;99.90;;;;;;5008051;28;20199;-76
2023/01/31 00:17:43;;;;;;;5.23;2.00;;;2.70;99.90;;;;;;5008830;28;20681;-76
2023/01/31 00:20:09;;;;;;;9.43;2.17;;;2.60;99.90;;;;;;5008495;28;20179;-77
2023/01/31 00:22:35;;;;;;;10.83;2.23;;;2.50;99.90;;;;;;5007229;28;20195;-76
2023/01/31 00:25:00;;;;;;;10.53;1.80;;;2.50;99.90;;;;;;5008700;28;20186;-77
2023/01/31 00:27:26;;;;;;;6.33;1.70;;;2.50;99.90;;;;;;5008572;28;20277;-76
2023/01/31 00:29:52;;;;;;;7.87;2.10;;;2.60;99.90;;;;;;5008981;28;20201;-77
2023/01/31 00:32:17;;;;;;;13.63;2.33;;;2.70;99.90;;;;;;5006349;28;20187;-77
2023/01/31 00:34:43;;;;;;;13.07;2.83;;;2.80;99.90;;;;;;5006995;28;20180;-76
2023/01/31 00:37:09;;;;;;;14.70;2.95;;;2.90;99.90;;;;;;5008058;28;20434;-76
2023/01/31 00:39:34;;;;;;;13.57;2.63;;;3.00;99.90;;;;;;5008562;28;20238;-77
2023/01/31 00:42:00;;;;;;;14.13;2.80;;;3.00;99.90;;;;;;5007149;28;20175;-76
2023/01/31 00:44:25;;;;;;;15.37;2.20;;;3.00;99.90;;;;;;5008383;28;20760;-76
2023/01/31 00:46:51;;;;;;;13.00;3.00;;;3.00;99.90;;;;;;5008165;28;20207;-76
2023/01/31 00:49:16;;;;;;;10.63;2.20;;;2.90;99.90;;;;;;5007752;28;20202;-77
2023/01/31 00:51:43;;;;;;;14.23;2.43;;;2.90;99.90;;;;;;5006621;28;20184;-76
2023/01/31 00:54:09;;;;;;;9.67;2.67;;;2.90;99.90;;;;;;5006648;28;20191;-75
2023/01/31 00:56:36;;;;;;;14.10;2.93;;;2.90;99.90;;;;;;5007401;28;20584;-77
2023/01/31 00:59:07;;;;;;;10.90;2.70;;;2.80;99.90;;;;;;5008051;28;20254;-76
2023/01/31 01:01:34;;;;;;;17.90;3.10;;;2.80;99.90;;;;;;5008071;28;20215;-76
2023/01/31 01:03:59;;;;;;;18.90;3.97;;;2.80;99.90;;;;;;5007709;28;20555;-76
2023/01/31 01:06:26;;;;;;;15.20;2.70;;;2.80;99.90;;;;;;5007313;28;20227;-77
2023/01/31 01:08:52;;;;;;;12.87;2.80;;;2.80;99.90;;;;;;5006452;28;20199;-76
2023/01/31 01:11:23;;;;;;;17.53;2.60;;;2.80;99.90;;;;;;5006368;28;20875;-76
2023/01/31 01:13:49;;;;;;;19.00;2.63;;;2.70;99.90;;;;;;5007260;28;20706;-77
2023/01/31 01:16:21;;;;;;;18.73;2.97;;;2.80;99.90;;;;;;5006397;28;20231;-76
2023/01/31 01:18:48;;;;;;;16.10;3.90;;;2.80;99.90;;;;;;5007774;28;20196;-77
2023/01/31 01:21:22;;;;;;;13.83;3.00;;;2.80;99.90;;;;;;5007619;28;20234;-77
2023/01/31 01:23:48;;;;;;;15.83;2.70;;;2.80;99.90;;;;;;5007532;28;20214;-76
2023/01/31 01:26:21;;;;;;;13.87;3.10;;;4.10;99.90;;;;;;5007177;28;20203;-76
2023/01/31 01:28:47;;;;;;;12.00;2.43;;;2.80;99.90;;;;;;5007430;28;20538;-77
2023/01/31 01:31:15;;;;;;;13.67;4.40;;;2.90;99.90;;;;;;5007309;28;20222;-76
2023/01/31 01:33:41;;;;;;;11.53;2.67;;;2.90;99.90;;;;;;5022205;28;20187;-77
2023/01/31 01:36:12;;;;;;;14.03;2.87;;;2.90;99.90;;;;;;5007111;28;20278;-76
2023/01/31 01:38:41;;;;;;;16.93;2.50;;;2.90;99.90;;;;;;5007361;28;20781;-77
2023/01/31 01:41:07;;;;;;;14.00;2.80;;;3.00;99.90;;;;;;5007008;28;20253;-76
2023/01/31 01:43:41;;;;;;;14.67;3.67;;;3.10;99.90;;;;;;5006786;28;20183;-76
2023/01/31 01:46:09;;;;;;;10.93;2.60;;;3.40;99.90;;;;;;5006068;28;20222;-77
2023/01/31 01:48:36;;;;;;;12.90;2.23;;;3.20;99.90;;;;;;5006857;28;20696;-76
2023/01/31 01:51:05;;;;;;;11.23;2.10;;;3.10;99.90;;;;;;5007822;28;20187;-76
2023/01/31 01:53:36;;;;;;;13.33;2.47;;;3.20;99.90;;;;;;5007703;28;21106;-77
2023/01/31 01:56:15;;;;;;;12.87;2.43;;;3.20;99.90;;;;;;5008185;28;20215;-76
2023/01/31 01:58:46;;;;;;;10.83;2.10;;;3.20;99.90;;;;;;5008206;28;20209;-76
2023/01/31 02:01:15;;;;;;;8.77;2.00;;;3.30;99.90;;;;;;5009057;28;20211;-77
2023/01/31 02:03:42;;;;;;;8.93;1.73;;;3.20;99.90;;;;;;5009027;28;20180;-77
2023/01/31 02:06:08;;;;;;;9.53;2.20;;;3.20;99.90;;;;;;5008590;28;20649;-76
2023/01/31 02:08:36;;;;;;;9.43;1.80;;;3.20;99.90;;;;;;5008220;28;20290;-76
2023/01/31 02:11:19;;;;;;;7.87;1.83;;;3.30;99.90;;;;;;5008588;28;20215;-76
2023/01/31 02:13:46;;;;;;;10.00;1.80;;;3.20;99.90;;;;;;5008230;28;20188;-77
2023/01/31 02:16:12;;;;;;;9.93;2.13;;;3.20;99.90;;;;;;5008260;28;20249;-76
2023/01/31 02:18:38;;;;;;;12.10;2.50;;;3.20;99.90;;;;;;5008209;28;20215;-76
2023/01/31 02:21:26;;;;;;;10.83;2.73;;;3.20;99.90;;;;;;5008144;28;20184;-77
2023/01/31 02:24:29;;;;;;;15.10;2.50;;;3.20;99.90;;;;;;5008365;28;20321;-77
2023/01/31 02:27:15;;;;;;;10.17;2.20;;;3.30;99.90;;;;;;5022950;28;20191;-77
2023/01/31 02:29:59;;;;;;;10.17;2.27;;;3.30;99.90;;;;;;5008921;28;20274;-77
2023/01/31 02:33:06;;;;;;;8.67;1.80;;;3.30;99.90;;;;;;5007776;28;20179;-76
2023/01/31 02:35:50;;;;;;;13.93;2.57;;;3.30;99.90;;;;;;5007954;28;20211;-76
2023/01/31 02:38:36;;;;;;;11.20;2.67;;;3.40;99.90;;;;;;5008027;28;20645;-76
2023/01/31 02:41:15;;;;;;;10.93;2.07;;;3.40;99.90;;;;;;4991741;28;20225;-76
2023/01/31 02:46:59;;;;;;;11.17;2.20;;;3.30;99.90;;;;;;5007315;28;20233;-77
2023/01/31 02:49:43;;;;;;;13.23;2.60;;;3.20;99.90;;;;;;5008145;28;20242;-76
2023/01/31 02:52:22;;;;;;;10.33;2.23;;;3.10;99.90;;;;;;5008620;28;20260;-76
2023/01/31 02:57:59;;;;;;;15.63;2.47;;;2.90;99.90;;;;;;5007446;28;20214;-77
2023/01/31 03:00:25;;;;;;;18.87;2.43;;;2.90;99.90;;;;;;5006848;28;20230;-76
2023/01/31 03:02:51;;;;;;;12.43;2.00;;;2.90;99.90;;;;;;5007935;28;20183;-76
2023/01/31 03:05:18;;;;;;;11.27;2.50;;;2.90;99.90;;;;;;5006945;28;20877;-77
2023/01/31 03:07:50;;;;;;;12.47;2.23;;;2.90;99.90;;;;;;5007084;28;20210;-76
2023/01/31 03:10:26;;;;;;;14.77;2.63;;;2.80;99.90;;;;;;5007324;28;20191;-76
2023/01/31 03:13:01;;;;;;;13.27;2.90;;;2.90;99.90;;;;;;5006862;28;20728;-76
2023/01/31 03:18:29;;;;;;;11.73;2.47;;;2.90;99.90;;;;;;5006980;28;20731;-76
2023/01/31 03:20:59;;;;;;;13.80;2.83;;;2.80;99.90;;;;;;5007008;28;20180;-77
2023/01/31 03:23:28;;;;;;;16.57;2.83;;;2.80;99.90;;;;;;5006503;28;20611;-76
2023/01/31 03:25:57;;;;;;;16.57;2.77;;;2.80;99.90;;;;;;5006554;28;20202;-77
2023/01/31 03:28:28;;;;;;;14.63;2.80;;;2.80;99.90;;;;;;5006622;28;20195;-76
2023/01/31 03:31:06;;;;;;;13.37;2.70;;;2.90;99.90;;;;;;5006009;28;20185;-77
2023/01/31 03:33:36;;;;;;;13.83;2.67;;;2.90;99.90;;;;;;5006612;28;20189;-76
2023/01/31 03:36:22;;;;;;;12.67;2.53;;;3.00;99.90;;;;;;5005805;28;20208;-77
2023/01/31 03:39:03;;;;;;;12.97;2.50;;;3.00;99.90;;;;;;5006114;28;20201;-77
2023/01/31 03:41:33;;;;;;;12.27;2.20;;;3.00;99.90;;;;;;5006093;28;20194;-77
2023/01/31 03:44:27;;;;;;;7.50;1.90;;;3.00;99.90;;;;;;5006029;28;20190;-76
2023/01/31 03:47:00;;;;;;;13.13;2.40;;;3.00;99.90;;;;;;4992343;28;20207;-77
2023/01/31 03:49:28;;;;;;;13.07;3.53;;;3.10;99.90;;;;;;5005275;28;20194;-76
2023/01/31 03:52:03;;;;;;;7.53;1.90;;;3.10;99.90;;;;;;5004526;28;20207;-77
2023/01/31 03:54:32;;;;;;;10.43;2.00;;;3.20;99.90;;;;;;5005852;28;20204;-76
2023/01/31 03:57:10;;;;;;;10.40;2.30;;;3.20;99.90;;;;;;5005444;28;20214;-77
2023/01/31 03:59:38;;;;;;;10.53;1.87;;;3.20;99.90;;;;;;5006040;28;20547;-76
2023/01/31 04:02:09;;;;;;;8.80;1.73;;;3.20;99.90;;;;;;5005908;28;20203;-76
2023/01/31 04:04:56;;;;;;;9.73;2.07;;;3.20;99.90;;;;;;5004939;28;20573;-76
2023/01/31 04:07:22;;;;;;;9.33;2.13;;;3.20;99.90;;;;;;5004462;28;20223;-77
2023/01/31 04:09:48;;;;;;;9.40;2.13;;;3.20;99.90;;;;;;5006094;28;20798;-76
2023/01/31 04:12:14;;;;;;;12.27;2.60;;;3.10;1.00;;;;;;5005543;28;20191;-76
2023/01/31 04:14:41;;;;;;;13.60;2.40;;;3.10;1.00;;;;;;5006103;28;20194;-76
2023/01/31 04:17:07;;;;;;;9.33;2.83;;;3.00;1.00;;;;;;5006434;28;20299;-76
2023/01/31 04:19:32;;;;;;;10.60;2.00;;;2.90;1.00;;;;;;5006611;28;20270;-77
2023/01/31 04:21:58;;;;;;;7.67;2.10;;;2.90;1.00;;;;;;5006608;28;20188;-76
2023/01/31 04:24:23;;;;;;;7.20;2.30;;;2.90;1.00;;;;;;5006387;28;20722;-76
2023/01/31 04:26:49;;;;;;;14.03;2.20;;;2.90;1.00;;;;;;5005222;28;20833;-76
2023/01/31 04:29:15;;;;;;;13.37;2.10;;;2.90;1.00;;;;;;5006029;28;20206;-76
2023/01/31 04:31:40;;;;;;;12.30;2.60;;;2.80;1.00;;;;;;5005725;28;20218;-77
2023/01/31 04:34:07;;;;;;;11.73;2.50;;;2.80;1.00;;;;;;5006050;28;20215;-77
2023/01/31 04:36:32;;;;;;;10.10;2.10;;;2.80;1.00;;;;;;5003922;28;20250;-77
2023/01/31 04:38:59;;;;;;;13.13;2.97;;;2.80;1.00;;;;;;5006155;28;20243;-76
2023/01/31 04:41:25;;;;;;;14.97;2.50;;;2.80;1.00;;;;;;5005924;28;20743;-77
2023/01/31 04:43:51;;;;;;;9.57;2.40;;;2.70;1.00;;;;;;5005874;28;20266;-76
2023/01/31 04:46:16;;;;;;;10.80;2.47;;;2.80;1.00;;;;;;5005114;28;20204;-77
2023/01/31 04:48:42;;;;;;;11.90;3.17;;;2.80;1.00;;;;;;5020526;28;20562;-76
2023/01/31 04:51:08;;;;;;;15.00;2.00;;;2.90;1.00;;;;;;5008652;28;20215;-76
2023/01/31 04:53:33;;;;;;;13.30;2.67;;;2.90;1.00;;;;;;5008260;28;20194;-77
2023/01/31 04:55:59;;;;;;;12.23;2.57;;;3.00;1.00;;;;;;5009076;28;20285;-77
2023/01/31 04:58:24;;;;;;;11.90;2.60;;;3.00;99.90;;;;;;5009439;28;20687;-76
2023/01/31 05:00:52;;;;;;;14.67;2.40;;;3.10;99.90;;;;;;5009426;28;20727;-76
2023/01/31 05:03:18;;;;;;;12.77;2.40;;;3.10;99.90;;;;;;5009859;28;20190;-76
2023/01/31 05:05:43;;;;;;;10.23;3.13;;;3.10;99.90;;;;;;5008497;28;20204;-76
2023/01/31 05:08:09;;;;;;;16.73;3.23;;;3.20;99.90;;;;;;5009141;28;20286;-76
2023/01/31 05:10:35;;;;;;;11.50;3.57;;;3.20;99.90;;;;;;5008605;28;20187;-76
2023/01/31 05:13:01;;;;;;;14.40;3.87;;;3.20;99.90;;;;;;5008628;28;20184;-77
2023/01/31 05:15:26;;;;;;;11.83;3.30;;;3.30;99.90;;;;;;5008131;28;20282;-76
2023/01/31 05:18:01;;;;;;;16.43;4.40;;;3.20;99.90;;;;;;5008983;28;20218;-76
2023/01/31 05:20:32;;;;;;;16.10;4.77;;;3.30;99.90;;;;;;5008120;28;20794;-76
2023/01/31 05:22:58;;;;;;;16.03;3.40;;;3.30;99.90;;;;;;5008817;28;20598;-76
2023/01/31 05:25:25;;;;;;;11.10;3.60;;;3.30;99.90;;;;;;5007167;28;20194;-77
2023/01/31 05:27:52;;;;;;;13.57;3.80;;;3.20;99.90;;;;;;5009132;28;20219;-76
2023/01/31 05:30:18;;;;;;;7.97;2.27;;;3.10;99.90;;;;;;5008642;28;20195;-76
2023/01/31 05:32:44;;;;;;;15.30;3.20;;;3.00;99.90;;;;;;5005447;28;20477;-76
2023/01/31 05:35:11;;;;;;;15.03;3.80;;;2.90;99.90;;;;;;5004724;28;20196;-76
2023/01/31 05:37:41;;;;;;;13.50;2.90;;;3.00;1.00;;;;;;5006886;28;20835;-76
2023/01/31 05:40:10;;;;;;;14.03;2.60;;;2.90;99.90;;;;;;5007631;28;20197;-76
2023/01/31 05:42:35;;;;;;;17.27;2.53;;;2.90;99.90;;;;;;5006381;28;20535;-77
2023/01/31 05:45:02;;;;;;;10.20;2.50;;;2.90;99.90;;;;;;5007547;28;20191;-76
2023/01/31 05:47:28;;;;;;;8.13;2.30;;;2.90;99.90;;;;;;5007085;28;20242;-76
2023/01/31 05:49:54;;;;;;;12.10;2.50;;;2.90;99.90;;;;;;5005803;28;20215;-76
2023/01/31 05:52:19;;;;;;;13.30;2.63;;;3.00;99.90;;;;;;5007232;28;20199;-76
2023/01/31 05:54:45;;;;;;;13.57;3.07;;;3.00;99.90;;;;;;5005595;28;20258;-76
2023/01/31 05:57:10;;;;;;;14.93;2.67;;;3.00;99.90;;;;;;5006721;28;20246;-77
2023/01/31 05:59:36;;;;;;;16.40;3.80;;;3.10;99.90;;;;;;5004937;28;20418;-76
2023/01/31 06:02:01;;;;;;;14.10;2.53;;;3.10;99.90;;;;;;5005402;28;20180;-77
2023/01/31 06:04:27;;;;;;;8.53;2.30;;;3.00;99.90;;;;;;5007030;28;20245;-76
2023/01/31 06:06:52;;;;;;;9.97;2.07;;;3.00;99.90;;;;;;5005396;28;20269;-76
2023/01/31 06:09:18;;;;;;;11.60;2.37;;;2.90;99.90;;;;;;5007143;28;20187;-76
2023/01/31 06:11:44;;;;;;;9.80;2.20;;;3.00;99.90;;;;;;5007214;28;20571;-76
2023/01/31 06:14:09;;;;;;;11.73;2.43;;;3.00;99.90;;;;;;5006545;28;20271;-76
2023/01/31 06:16:35;;;;;;;10.97;2.37;;;3.00;99.90;;;;;;5006018;28;20208;-76
2023/01/31 06:19:00;;;;;;;19.53;3.00;;;3.00;99.90;;;;;;5006621;28;20223;-76
2023/01/31 06:21:26;;;;;;;12.97;2.43;;;3.00;99.90;;;;;;5007052;28;20202;-76
2023/01/31 06:23:52;;;;;;;16.90;2.80;;;3.00;99.90;;;;;;5006015;28;20180;-76
2023/01/31 06:26:17;;;;;;;11.53;2.40;;;3.00;99.90;;;;;;5006152;28;20270;-76
2023/01/31 06:28:43;;;;;;;16.67;2.97;;;3.00;99.90;;;;;;5006469;28;20190;-76
2023/01/31 06:31:10;;;;;;;11.73;2.60;;;3.00;99.90;;;;;;5006252;28;20194;-76
2023/01/31 06:33:36;;;;;;;11.50;2.20;;;3.10;99.90;;;;;;5005094;28;20562;-76
2023/01/31 06:36:02;;;;;;;12.90;2.83;;;3.10;99.90;;;;;;5005918;28;20208;-78
2023/01/31 06:38:28;;;;;;;9.07;2.20;;;3.20;99.90;;;;;;5006227;28;20613;-77
2023/01/31 06:40:53;;;;;;;9.97;2.43;;;3.10;99.90;;;;;;5006270;28;20176;-77
2023/01/31 06:43:19;;;;;;;15.53;3.10;;;3.10;99.90;;;;;;5005883;28;20729;-77
2023/01/31 06:45:45;;;;;;;12.40;2.70;;;3.20;99.90;;;;;;5007133;28;20295;-77
2023/01/31 06:48:11;;;;;;;10.20;2.87;;;3.10;99.90;;;;;;5006232;28;20271;-77
2023/01/31 06:50:37;;;;;;;12.80;2.53;;;3.10;99.90;;;;;;5007124;28;20273;-77
2023/01/31 06:53:03;;;;;;;7.73;1.97;;;3.10;99.90;;;;;;5005989;28;20270;-77
2023/01/31 06:55:28;;;;;;;6.27;1.87;;;3.10;99.90;;;;;;5005517;28;20188;-77
2023/01/31 06:57:56;;;;;;;16.03;2.30;;;3.10;99.90;;;;;;5005865;28;20203;-77
2023/01/31 07:00:24;;;;;;;11.67;2.27;;;3.10;99.90;;;;;;5003705;28;20184;-77
2023/01/31 07:02:50;;;;;;;9.33;2.30;;;3.20;99.90;;;;;;5007468;28;20256;-77
2023/01/31 07:05:17;;;;;;;10.17;2.30;;;3.30;99.90;;;;;;5005871;28;20195;-77
2023/01/31 07:07:42;;;;;;;10.10;2.63;;;3.30;99.90;;;;;;5009382;28;20202;-77
2023/01/31 07:10:09;;;;;;;9.00;2.30;;;3.30;99.90;;;;;;5007279;28;20225;-76
2023/01/31 07:12:35;;;;;;;10.57;2.40;;;3.20;99.90;;;;;;5001663;28;20230;-76
2023/01/31 07:15:01;;;;;;;9.20;2.13;;;3.20;99.90;;;;;;5004359;28;20191;-76
2023/01/31 07:17:26;;;;;;;10.97;2.20;;;3.20;99.90;;;;;;5005243;28;20207;-76
2023/01/31 07:19:52;;;;;;;12.37;2.57;;;3.20;99.90;;;;;;5005511;28;20238;-76
2023/01/31 07:22:18;;;;;;;11.00;2.90;;;3.20;99.90;;;;;;5005176;28;21170;-77
2023/01/31 07:24:44;;;;;;;13.53;2.40;;;3.20;99.90;;;;;;5005273;28;20183;-76
2023/01/31 07:27:12;;;;;;;10.90;1.97;;;3.30;99.90;;;;;;5005104;28;20200;-76
2023/01/31 07:29:38;;;;;;;7.73;1.80;;;3.30;99.90;;;;;;5004769;28;20191;-76
2023/01/31 07:32:04;;;;;;;11.17;2.40;;;3.40;99.90;;;;;;5004220;28;20187;-76
2023/01/31 07:34:30;;;;;;;7.53;2.20;;;3.30;99.90;;;;;;5003911;28;20719;-76
2023/01/31 07:36:55;;;;;;;10.90;2.67;;;3.40;99.90;;;;;;5002026;28;20199;-76
2023/01/31 07:39:22;;;;;;;11.50;2.73;;;3.40;99.90;;;;;;5004091;28;20242;-76
2023/01/31 07:41:48;;;;;;;9.67;2.20;;;3.40;99.90;;;;;;5004549;28;20172;-76
2023/01/31 07:44:14;;;;;;;11.07;2.33;;;3.40;99.90;;;;;;5005390;28;20202;-77
2023/01/31 07:46:40;;;;;;;8.37;1.87;;;3.50;99.90;;;;;;5004565;28;20740;-76
2023/01/31 07:49:08;;;;;;;9.50;2.00;;;3.50;99.90;;;;;;5006030;28;20191;-77
2023/01/31 07:51:34;;;;;;;9.70;2.07;;;3.50;99.90;;;;;;5004552;28;20219;-77
2023/01/31 07:54:01;;;;;;;7.47;2.00;;;3.50;99.90;;;;;;5004808;28;20558;-77
2023/01/31 07:56:26;;;;;;;13.83;3.17;;;3.50;99.90;;;;;;5004653;28;20215;-77
2023/01/31 07:58:52;;;;;;;8.50;2.57;;;3.60;99.90;;;;;;5003794;28;20199;-78
2023/01/31 08:04:07;;;;;;;11.00;2.50;;;3.60;99.90;;;;;;5004416;28;20187;-77
2023/01/31 08:06:33;;;;;;;13.23;3.03;;;3.60;99.90;;;;;;4999501;28;20265;-77
2023/01/31 08:09:00;;;;;;;14.53;4.93;;;3.60;99.90;;;;;;5002909;28;20196;-77
2023/01/31 08:11:26;;;;;;;13.83;3.13;;;3.60;99.90;;;;;;5003844;28;20191;-76
2023/01/31 08:13:51;;;;;;;13.20;3.70;;;3.70;99.90;;;;;;5003728;28;20185;-76
2023/01/31 08:16:18;;;;;;;12.13;3.70;;;3.70;99.90;;;;;;5001434;28;20281;-76
2023/01/31 08:18:44;;;;;;;13.07;3.43;;;3.80;99.90;;;;;;5003557;28;20290;-76
2023/01/31 08:21:11;;;;;;;11.53;3.80;;;3.80;99.90;;;;;;5003838;28;21121;-76
2023/01/31 08:23:38;;;;;;;15.40;4.17;;;3.80;99.90;;;;;;5003775;28;20201;-76
2023/01/31 08:26:12;;;;;;;9.97;3.37;;;3.90;99.90;;;;;;5007269;28;20814;-76
2023/01/31 08:28:39;;;;;;;12.20;3.80;;;3.90;99.90;;;;;;5006725;28;20190;-76
2023/01/31 08:31:05;;;;;;;13.53;4.57;;;3.90;99.90;;;;;;5008094;28;20206;-76
2023/01/31 08:33:31;;;;;;;12.40;4.13;;;4.00;99.90;;;;;;5006397;28;20267;-76
2023/01/31 08:36:06;;;;;;;15.67;5.30;;;4.00;99.90;;;;;;5006171;28;20302;-76
2023/01/31 08:38:32;;;;;;;11.20;4.13;;;4.00;99.90;;;;;;5006753;28;20744;-76
2023/01/31 08:40:57;;;;;;;12.07;3.93;;;4.10;99.90;;;;;;5008461;28;20259;-76
2023/01/31 08:43:23;;;;;;;14.33;4.80;;;4.10;99.90;;;;;;5007843;28;20196;-76
2023/01/31 08:45:49;;;;;;;10.93;4.20;;;4.20;99.90;;;;;;5007492;28;20204;-76
2023/01/31 08:48:14;;;;;;;14.03;5.17;;;4.20;99.80;;;;;;5007741;28;20191;-77
2023/01/31 08:50:40;;;;;;;9.97;4.27;;;4.20;98.50;;;;;;5005207;28;20216;-76
2023/01/31 08:53:05;;;;;;;14.93;4.80;;;4.30;94.00;;;;;;5004358;28;20196;-77
2023/01/31 08:55:34;;;;;;;10.00;4.07;;;4.30;99.90;;;;;;5005305;28;20195;-76
2023/01/31 08:58:00;;;;;;;11.93;5.40;;;4.40;90.50;;;;;;5003196;28;20246;-76
2023/01/31 09:00:27;;;;;;;17.40;3.90;;;4.40;90.80;;;;;;5005467;28;20176;-77
2023/01/31 09:03:01;;;;;;;14.50;3.83;;;4.40;78.70;;;;;;5005108;28;20214;-76
2023/01/31 09:05:29;;;;;;;13.33;3.90;;;4.50;78.40;;;;;;5004720;28;20576;-76
2023/01/31 09:07:55;;;;;;;12.73;3.77;;;4.60;65.20;;;;;;5005575;28;20191;-76
2023/01/31 09:10:21;;;;;;;12.20;4.00;;;4.70;64.30;;;;;;5002053;28;20205;-76
2023/01/31 09:12:47;;;;;;;9.60;3.57;;;4.80;57.60;;;;;;5005169;28;20191;-76
2023/01/31 09:15:13;;;;;;;14.60;3.37;;;4.80;56.50;;;;;;5004338;28;20426;-76
2023/01/31 09:17:39;;;;;;;12.53;3.53;;;5.10;38.00;;;;;;5002810;28;20211;-76
2023/01/31 09:20:08;;;;;;;11.70;3.10;;;5.20;27.70;;;;;;5004110;28;20187;-76
2023/01/31 09:22:34;;;;;;;12.53;3.77;;;5.20;25.70;;;;;;5004090;28;20191;-76
2023/01/31 09:25:00;;;;;;;12.77;3.37;;;5.30;22.90;;;;;;5006086;28;20864;-78
2023/01/31 09:27:27;;;;;;;11.77;3.43;;;5.20;22.20;;;;;;5002904;28;20783;-76
2023/01/31 09:29:53;;;;;;;13.63;3.67;;;5.20;17.10;;;;;;5001011;28;20184;-76
2023/01/31 09:32:20;;;;;;;13.67;3.60;;;5.10;17.50;;;;;;5000913;28;20183;-76
2023/01/31 09:34:47;;;;;;;8.80;3.43;;;6.30;21.30;;;;;;4999672;28;20512;-76
2023/01/31 09:37:14;;;;;;;10.83;3.50;;;5.10;15.50;;;;;;4998688;28;20210;-76
2023/01/31 09:39:40;;;;;;;15.07;4.03;;;5.20;18.40;;;;;;4999608;28;20275;-76
2023/01/31 09:42:18;;;;;;;12.30;4.20;;;5.30;18.80;;;;;;4999942;28;20188;-76
2023/01/31 09:45:07;;;;;;;15.30;4.03;;;5.30;13.50;;;;;;5001962;28;20270;-76
2023/01/31 09:47:37;;;;;;;11.90;3.77;;;5.10;10.50;;;;;;5000954;28;20734;-76
2023/01/31 09:50:11;;;;;;;11.47;4.60;;;5.30;8.70;;;;;;5001934;28;20406;-76
2023/01/31 09:52:37;;;;;;;10.00;4.20;;;5.30;9.70;;;;;;5000350;28;20282;-76
2023/01/31 09:55:04;;;;;;;7.50;3.70;;;5.30;10.40;;;;;;5001621;28;20616;-76
2023/01/31 09:57:35;;;;;;;13.03;4.07;;;5.30;10.50;;;;;;5001148;28;20290;-77
2023/01/31 10:00:27;;;;;;;10.53;4.13;;;5.20;14.60;;;;;;4999949;28;20194;-76
2023/01/31 10:02:59;;;;;;;11.60;4.13;;;5.20;18.20;;;;;;4998694;28;20198;-76
2023/01/31 10:05:38;;;;;;;14.27;4.70;;;5.10;14.40;;;;;;5001157;28;20262;-76
2023/01/31 10:08:10;;;;;;;12.17;3.87;;;5.20;17.20;;;;;;4999268;28;20286;-76
2023/01/31 10:10:35;;;;;;;13.50;4.47;;;5.30;17.50;;;;;;4999649;28;20664;-76
2023/01/31 10:13:18;;;;;;;12.70;4.27;;;5.30;13.50;;;;;;5002032;28;20184;-76
2023/01/31 10:15:50;;;;;;;13.03;4.70;;;5.40;10.10;;;;;;5000823;28;20208;-77
2023/01/31 10:18:24;;;;;;;12.47;5.07;;;5.30;8.00;;;;;;5001140;28;20265;-77
2023/01/31 10:20:54;;;;;;;17.97;6.20;;;5.40;6.90;;;;;;5001201;28;20945;-76
2023/01/31 10:23:29;;;;;;;12.37;5.10;;;5.40;1.00;;;;;;5003189;28;20548;-76
2023/01/31 10:26:05;;;;;;;12.97;4.90;;;5.40;18.60;;;;;;5002999;28;20290;-76
2023/01/31 10:28:38;;;;;;;13.07;5.17;;;5.30;4.40;;;;;;5002976;28;20557;-76
2023/01/31 10:31:26;;;;;;;13.57;4.87;;;5.40;18.30;;;;;;5000051;28;20191;-77
2023/01/31 10:33:57;;;;;;;9.67;5.07;;;5.30;18.50;;;;;;5018371;28;21332;-76
2023/01/31 10:36:35;;;;;;;12.90;5.73;;;5.10;63.20;;;;;;5003235;28;20226;-77
2023/01/31 10:39:21;;;;;;;16.20;6.00;;;5.00;98.30;;;;;;5004821;28;20262;-77
2023/01/31 10:42:11;;;;;;;15.23;5.47;;;4.90;99.90;;;;;;5005136;28;20176;-77
2023/01/31 10:44:50;;;;;;;14.30;5.80;;;4.70;99.90;;;;;;5004253;28;20271;-77
2023/01/31 10:47:18;;;;;;;12.13;6.27;;;4.60;99.90;;;;;;5005501;28;20879;-76
2023/01/31 10:49:46;;;;;;;12.37;6.47;;;4.60;99.90;;;;;;5004084;28;20187;-76
2023/01/31 10:52:27;;;;;;;12.20;6.50;;;4.50;99.90;;;;;;5004581;28;20176;-76
2023/01/31 10:55:00;;;;;;;13.70;6.43;;;4.50;99.90;;;;;;5004682;28;20175;-76
2023/01/31 10:57:26;;;;;;;12.47;6.77;;;4.50;99.90;;;;;;5002268;28;20199;-77
2023/01/31 10:59:53;;;;;;;14.23;6.93;;;4.50;99.90;;;;;;5004887;28;20176;-76
2023/01/31 11:02:24;;;;;;;12.30;5.77;;;4.50;99.90;;;;;;5004362;28;20497;-77
2023/01/31 11:04:53;;;;;;;10.93;6.23;;;4.50;99.90;;;;;;5004921;28;20172;-76
2023/01/31 11:07:19;;;;;;;10.77;5.77;;;4.50;99.90;;;;;;5002561;28;20223;-77
2023/01/31 11:09:53;;;;;;;12.53;5.50;;;4.50;99.90;;;;;;5001771;28;20696;-76
2023/01/31 11:12:42;;;;;;;11.57;5.87;;;4.60;99.90;;;;;;5005284;28;21191;-77
2023/01/31 11:15:16;;;;;;;11.53;5.83;;;4.60;99.90;;;;;;5007565;28;20680;-77
2023/01/31 11:17:43;;;;;;;10.27;5.87;;;4.60;99.90;;;;;;5003159;28;20221;-76
2023/01/31 11:20:29;;;;;;;10.43;6.70;;;4.60;99.90;;;;;;5005810;28;20565;-77
2023/01/31 11:22:57;;;;;;;10.70;5.80;;;4.60;99.90;;;;;;5003952;28;20657;-77
2023/01/31 11:25:25;;;;;;;8.93;5.37;;;4.60;99.90;;;;;;5003363;28;20258;-78
2023/01/31 11:27:59;;;;;;;9.20;4.77;;;4.60;99.90;;;;;;5004849;28;20168;-78
2023/01/31 11:30:33;;;;;;;10.07;4.90;;;4.60;99.90;;;;;;5003697;28;20193;-78
2023/01/31 11:33:00;;;;;;;11.10;4.93;;;4.60;99.90;;;;;;5006470;28;20175;-78
2023/01/31 11:35:31;;;;;;;7.50;4.77;;;4.60;99.90;;;;;;5004396;28;20191;-78
2023/01/31 11:37:59;;;;;;;8.47;4.13;;;4.60;99.90;;;;;;5002152;28;20626;-78
2023/01/31 11:40:31;;;;;;;8.63;3.70;;;4.70;99.90;;;;;;5002299;28;20250;-76
2023/01/31 11:43:03;;;;;;;8.83;4.13;;;4.70;99.90;;;;;;5002514;28;20736;-77
2023/01/31 11:45:41;;;;;;;7.03;3.80;;;4.70;99.90;;;;;;5003119;28;20180;-77
2023/01/31 11:48:43;;;;;;;7.73;4.30;;;4.70;99.90;;;;;;5003325;28;20181;-77
2023/01/31 11:51:25;;;;;;;7.43;3.93;;;4.80;99.90;;;;;;5006377;28;20260;-79
2023/01/31 11:53:52;;;;;;;6.93;3.60;;;4.80;99.90;;;;;;5008062;28;20183;-80
2023/01/31 11:56:27;;;;;;;4.60;3.20;;;4.80;99.90;;;;;;5003593;28;20203;-77
2023/01/31 11:59:02;;;;;;;9.23;3.60;;;4.80;99.90;;;;;;5003582;28;20949;-77
2023/01/31 12:01:29;;;;;;;6.60;2.97;;;4.90;99.90;;;;;;5003362;28;20294;-76
2023/01/31 12:03:59;;;;;;;5.07;2.90;;;4.90;99.90;;;;;;5002791;28;20191;-76
2023/01/31 12:06:33;;;;;;;7.47;3.00;;;4.90;99.90;;;;;;5002503;28;20238;-76
2023/01/31 12:09:01;;;;;;;5.70;3.23;;;4.90;99.90;;;;;;5002966;28;20196;-76
2023/01/31 12:11:32;;;;;;;6.10;3.10;;;4.90;99.90;;;;;;5000699;28;20222;-76
2023/01/31 12:14:13;;;;;;;4.07;2.63;;;4.90;99.90;;;;;;5004193;28;20187;-76
2023/01/31 12:16:39;;;;;;;5.53;2.50;;;4.80;99.90;;;;;;5002910;28;20207;-76
2023/01/31 12:19:11;;;;;;;5.90;2.80;;;4.70;99.90;;;;;;5002735;28;20668;-76
2023/01/31 12:22:02;;;;;;;5.77;3.40;;;4.80;99.90;;;;;;5004131;28;20581;-76
2023/01/31 12:24:52;;;;;;;7.23;3.23;;;4.80;99.90;;;;;;5002513;28;20530;-76
2023/01/31 12:27:39;;;;;;;4.50;2.50;;;4.80;99.90;;;;;;5003259;28;20200;-76
2023/01/31 12:30:30;;;;;;;6.03;2.80;;;4.80;99.90;;;;;;5003460;28;20223;-76
2023/01/31 12:32:59;;;;;;;6.13;3.00;;;5.70;99.90;;;;;;5003628;28;20179;-77
2023/01/31 12:35:51;;;;;;;4.47;3.17;;;4.90;99.90;;;;;;5003622;28;20242;-77
2023/01/31 12:38:22;;;;;;;6.83;2.90;;;4.90;99.90;;;;;;5003393;28;20306;-76
2023/01/31 12:41:05;;;;;;;6.10;2.50;;;4.90;99.90;;;;;;5003932;28;20655;-76
2023/01/31 12:44:05;;;;;;;4.87;2.43;;;4.90;99.90;;;;;;5002395;28;20282;-77
2023/01/31 12:46:36;;;;;;;4.73;2.50;;;4.80;99.90;;;;;;5019937;28;20242;-77
2023/01/31 12:49:28;;;;;;;5.00;2.80;;;4.90;99.90;;;;;;5002666;28;20271;-77
2023/01/31 12:52:19;;;;;;;5.63;2.77;;;4.90;99.90;;;;;;5001270;28;20180;-77
2023/01/31 12:54:50;;;;;;;4.53;2.23;;;4.80;99.90;;;;;;5004031;28;20180;-77
2023/01/31 12:57:43;;;;;;;4.73;2.83;;;4.80;99.90;;;;;;5002106;28;20838;-75
2023/01/31 13:00:24;;;;;;;5.50;2.37;;;4.90;99.90;;;;;;5001405;28;20234;-76
2023/01/31 13:03:16;;;;;;;3.93;2.80;;;4.80;99.90;;;;;;4997703;28;20188;-77
2023/01/31 13:05:50;;;;;;;5.50;3.03;;;4.80;1.00;;;;;;4996466;28;20238;-78
2023/01/31 13:08:18;;;;;;;5.07;3.13;;;4.80;1.00;;;;;;5005924;28;20223;-78
2023/01/31 13:11:08;;;;;;;6.53;3.23;;;4.70;1.00;;;;;;5000607;28;20499;-77
2023/01/31 13:13:44;;;;;;;4.50;3.33;;;4.70;1.00;;;;;;5021490;28;20257;-76
2023/01/31 13:16:33;;;;;;;6.87;3.60;;;4.70;1.00;;;;;;5005785;28;20249;-77
2023/01/31 13:19:11;;;;;;;6.07;3.43;;;4.70;1.00;;;;;;5004491;28;20219;-77